Berwyn, New York
Current Conditions -  °F | °C
As of 11:06 AM on Thursday 27 Nov 2014 (Local Time) from KSYR Reporting Station
Light Snow Light Snow  
Wind Chill: -2°   Ceiling: 1000
Heat Index: -2°   Visibility: 3mi
Dew Point: -3°   Wind: 3mph
Humidity: 89%   Direction: 300°WNW
Pressure: 30.04"   Gusts: NA
Location:  42.8894°N, 76.1084°W
Report Text: KSYR 271606Z 30003KT 3SM -SN BR BKN010 OVC015 M02/M03 A3004 RMK AO2 VIS 1 3/4 NW P0000 T10171033
Loading
Personal Weather Stations






























Interactive Weather Map New forecast layout! Learn more

10-Day Weather Forecast

Advertisements
Track Severe Weather on mobile